createdAt,value
2018-12-17T00:00:17.912Z,82.03
2018-12-17T00:00:49.012Z,81.93
2018-12-17T00:01:20.149Z,82.01
2018-12-17T00:01:51.294Z,82.09
2018-12-17T00:02:22.394Z,81.82
2018-12-17T00:02:53.502Z,81.55
2018-12-17T00:03:24.607Z,81.24
2018-12-17T00:03:55.723Z,81.55
2018-12-17T00:04:26.815Z,81.60
2018-12-17T00:04:57.916Z,81.40
2018-12-17T00:05:30.555Z,80.46
2018-12-17T00:06:01.840Z,81.42
2018-12-17T00:06:32.954Z,81.25
2018-12-17T00:07:04.104Z,81.18
2018-12-17T00:07:35.205Z,80.62
2018-12-17T00:08:06.308Z,80.17
2018-12-17T00:08:37.412Z,80.18
2018-12-17T00:09:08.505Z,80.65
2018-12-17T00:09:39.599Z,80.61
2018-12-17T00:10:10.702Z,80.95
2018-12-17T00:10:41.809Z,80.65
2018-12-17T00:11:12.908Z,80.89
2018-12-17T00:11:44.010Z,80.97
2018-12-17T00:12:16.652Z,80.10
2018-12-17T00:12:47.992Z,80.00
2018-12-17T00:13:19.099Z,80.04
2018-12-17T00:13:50.200Z,80.08
2018-12-17T00:14:21.296Z,79.62
2018-12-17T00:14:52.442Z,79.89
2018-12-17T00:15:23.541Z,80.51
2018-12-17T00:15:54.655Z,80.11
2018-12-17T00:16:25.769Z,80.10
2018-12-17T00:16:56.878Z,80.54
2018-12-17T00:17:27.985Z,79.84
2018-12-17T00:17:59.089Z,79.95
2018-12-17T00:18:30.193Z,80.35
2018-12-17T00:19:01.298Z,80.55
2018-12-17T00:19:32.399Z,80.64
2018-12-17T00:20:03.537Z,80.92
2018-12-17T00:20:34.633Z,81.13
2018-12-17T00:21:05.731Z,81.18
2018-12-17T00:21:36.861Z,80.92
2018-12-17T00:22:07.957Z,79.97
2018-12-17T00:22:39.055Z,79.99
2018-12-17T00:23:10.152Z,80.55
2018-12-17T00:23:41.256Z,80.35
2018-12-17T00:24:12.362Z,80.85
2018-12-17T00:24:43.466Z,79.49
2018-12-17T00:25:14.568Z,79.39
2018-12-17T00:25:45.674Z,80.20
2018-12-17T00:26:16.808Z,80.62
2018-12-17T00:26:47.951Z,78.63
2018-12-17T00:27:19.050Z,80.42
2018-12-17T00:27:50.169Z,79.22
2018-12-17T00:28:21.277Z,78.60
2018-12-17T00:28:52.378Z,78.82
2018-12-17T00:29:23.473Z,79.02
2018-12-17T00:29:54.628Z,78.79
2018-12-17T00:30:25.731Z,79.81
2018-12-17T00:30:56.840Z,79.88
2018-12-17T00:31:27.944Z,78.93
2018-12-17T00:31:59.052Z,79.28
2018-12-17T00:32:30.169Z,79.63
2018-12-17T00:33:01.330Z,79.18
2018-12-17T00:33:32.470Z,77.98
2018-12-17T00:34:03.562Z,77.84
2018-12-17T00:34:35.785Z,77.94
2018-12-17T00:35:06.896Z,78.54
2018-12-17T00:35:38.012Z,78.98
2018-12-17T00:36:09.120Z,79.02
2018-12-17T00:36:40.220Z,79.71
2018-12-17T00:37:11.325Z,80.12
2018-12-17T00:37:42.439Z,79.62
2018-12-17T00:38:13.548Z,78.98
2018-12-17T00:38:44.655Z,78.95
2018-12-17T00:39:15.769Z,79.00
2018-12-17T00:39:46.918Z,78.98
2018-12-17T00:40:18.020Z,79.04
2018-12-17T00:40:49.139Z,78.56
2018-12-17T00:41:20.258Z,79.27
2018-12-17T00:41:51.398Z,79.81
2018-12-17T00:42:22.500Z,80.17
2018-12-17T00:42:53.596Z,79.30
2018-12-17T00:43:24.731Z,78.79
2018-12-17T00:43:55.864Z,78.43
2018-12-17T00:44:27.122Z,78.62
2018-12-17T00:44:58.491Z,78.41
2018-12-17T00:45:29.601Z,78.40
2018-12-17T00:46:00.768Z,78.60
2018-12-17T00:46:31.894Z,79.24
2018-12-17T00:47:03.025Z,79.25
2018-12-17T00:47:34.142Z,78.33
2018-12-17T00:48:05.381Z,78.85
2018-12-17T00:48:36.484Z,79.29
2018-12-17T00:49:07.651Z,79.05
2018-12-17T00:49:38.763Z,78.89
2018-12-17T00:50:09.882Z,79.22
2018-12-17T00:50:41.024Z,78.86
2018-12-17T00:51:12.129Z,79.18
2018-12-17T00:51:43.232Z,79.19
2018-12-17T00:52:14.332Z,79.04
2018-12-17T00:52:45.443Z,78.54
2018-12-17T00:53:16.541Z,78.91
2018-12-17T00:53:47.645Z,79.01
2018-12-17T00:54:18.747Z,79.05
2018-12-17T00:54:49.849Z,78.16
2018-12-17T00:55:20.958Z,77.27
2018-12-17T00:55:52.126Z,77.58
2018-12-17T00:56:23.229Z,78.02
2018-12-17T00:56:54.323Z,78.29
2018-12-17T00:57:25.433Z,78.39
2018-12-17T00:57:56.540Z,77.86
2018-12-17T00:58:27.640Z,77.71
2018-12-17T00:58:58.731Z,77.77
2018-12-17T00:59:29.835Z,77.75
2018-12-17T01:00:00.961Z,77.58
2018-12-17T01:00:32.070Z,77.68
2018-12-17T01:01:03.200Z,78.12
2018-12-17T01:01:34.296Z,77.67
2018-12-17T01:02:05.404Z,77.66
2018-12-17T01:02:36.522Z,77.94
2018-12-17T01:03:07.635Z,78.41
2018-12-17T01:03:38.753Z,78.58
2018-12-17T01:04:09.884Z,77.96
2018-12-17T01:04:41.070Z,77.94
2018-12-17T01:05:12.188Z,77.81
2018-12-17T01:05:43.328Z,77.74
2018-12-17T01:06:14.556Z,78.09
2018-12-17T01:06:45.709Z,77.38
2018-12-17T01:07:16.836Z,78.15
2018-12-17T01:07:48.006Z,77.31
2018-12-17T01:08:19.125Z,77.85
2018-12-17T01:08:50.305Z,76.94
2018-12-17T01:09:21.579Z,77.77
2018-12-17T01:09:52.696Z,76.92
2018-12-17T01:10:23.804Z,76.84
2018-12-17T01:10:54.944Z,77.10
2018-12-17T01:11:26.061Z,77.05
2018-12-17T01:11:57.186Z,77.59
2018-12-17T01:12:28.291Z,77.94
2018-12-17T01:12:59.400Z,76.87
2018-12-17T01:13:30.505Z,76.81
2018-12-17T01:14:01.628Z,77.56
2018-12-17T01:14:32.764Z,78.43
2018-12-17T01:15:03.898Z,78.14
2018-12-17T01:15:35.021Z,77.27
2018-12-17T01:16:06.129Z,76.18
2018-12-17T01:16:37.226Z,75.59
2018-12-17T01:17:08.331Z,75.94
2018-12-17T01:17:39.441Z,76.53
2018-12-17T01:18:10.549Z,75.91
2018-12-17T01:18:41.670Z,76.48
2018-12-17T01:19:12.791Z,76.45
2018-12-17T01:19:43.938Z,76.83
2018-12-17T01:20:15.089Z,77.01
2018-12-17T01:20:46.201Z,77.03
2018-12-17T01:21:17.324Z,77.19
2018-12-17T01:21:48.429Z,75.97
2018-12-17T01:22:19.544Z,76.39
2018-12-17T01:22:50.641Z,76.31
2018-12-17T01:23:21.748Z,75.92
2018-12-17T01:23:53.213Z,74.95
2018-12-17T01:24:24.354Z,75.68
2018-12-17T01:24:55.561Z,75.96
2018-12-17T01:25:26.666Z,77.35
2018-12-17T01:25:58.590Z,75.62
2018-12-17T01:26:29.761Z,74.94
2018-12-17T01:27:01.131Z,76.30
2018-12-17T01:27:32.275Z,76.23
2018-12-17T01:28:03.391Z,76.12
2018-12-17T01:28:34.499Z,76.59
2018-12-17T01:29:05.634Z,76.32
2018-12-17T01:29:36.734Z,76.17
2018-12-17T01:30:07.840Z,76.21
2018-12-17T01:30:38.936Z,75.98
2018-12-17T01:31:10.034Z,76.26
2018-12-17T01:31:41.128Z,76.45
2018-12-17T01:32:12.271Z,76.52
2018-12-17T01:32:43.375Z,75.10
2018-12-17T01:33:14.477Z,74.08
2018-12-17T01:33:45.589Z,74.03
2018-12-17T01:34:16.684Z,75.31
2018-12-17T01:34:47.784Z,76.21
2018-12-17T01:35:18.892Z,75.77
2018-12-17T01:35:49.998Z,76.01
2018-12-17T01:36:21.103Z,75.73
2018-12-17T01:36:52.205Z,74.43
2018-12-17T01:37:23.360Z,74.79
2018-12-17T01:37:54.473Z,75.15
2018-12-17T01:38:25.571Z,75.45
2018-12-17T01:38:56.677Z,75.89
2018-12-17T01:39:27.782Z,75.97
2018-12-17T01:39:58.885Z,75.79
2018-12-17T01:40:29.980Z,75.37
2018-12-17T01:41:01.079Z,75.36
2018-12-17T01:41:32.185Z,75.76
2018-12-17T01:42:03.323Z,75.70
2018-12-17T01:42:34.428Z,75.51
2018-12-17T01:43:05.594Z,76.10
2018-12-17T01:43:36.700Z,75.63
2018-12-17T01:44:07.811Z,75.68
2018-12-17T01:44:38.923Z,75.79
2018-12-17T01:45:10.037Z,76.22
2018-12-17T01:45:41.133Z,76.61
2018-12-17T01:46:12.278Z,76.46
2018-12-17T01:46:43.374Z,76.66
2018-12-17T01:47:14.467Z,76.55
2018-12-17T01:47:45.609Z,76.85
2018-12-17T01:48:16.845Z,77.43
2018-12-17T01:48:47.936Z,78.19
2018-12-17T01:49:19.042Z,78.10
2018-12-17T01:49:50.158Z,76.13
2018-12-17T01:50:21.283Z,77.18
2018-12-17T01:50:52.393Z,77.49
2018-12-17T01:51:23.503Z,74.93
2018-12-17T01:51:54.637Z,73.31
2018-12-17T01:52:25.746Z,74.59
2018-12-17T01:52:56.860Z,73.75
2018-12-17T01:53:27.965Z,73.57
2018-12-17T01:53:59.072Z,74.03
2018-12-17T01:54:30.174Z,72.61
2018-12-17T01:55:01.288Z,72.67
2018-12-17T01:55:32.434Z,72.57
2018-12-17T01:56:03.542Z,73.15
2018-12-17T01:56:34.644Z,72.61
2018-12-17T01:57:05.788Z,73.03
2018-12-17T01:57:36.894Z,73.96
2018-12-17T01:58:08.003Z,74.54
2018-12-17T01:58:39.139Z,74.08
2018-12-17T01:59:10.258Z,73.57
2018-12-17T01:59:41.401Z,73.96
2018-12-17T02:00:12.513Z,73.66
2018-12-17T02:00:43.622Z,73.77
2018-12-17T02:01:14.785Z,73.71
2018-12-17T02:01:45.885Z,73.71
2018-12-17T02:02:16.985Z,74.46
2018-12-17T02:02:48.095Z,74.26
2018-12-17T02:03:19.204Z,75.80
2018-12-17T02:03:50.381Z,73.96
2018-12-17T02:04:21.473Z,73.67
2018-12-17T02:04:52.576Z,74.58
2018-12-17T02:05:23.688Z,73.45
2018-12-17T02:05:54.798Z,75.33
2018-12-17T02:06:25.952Z,75.42
2018-12-17T02:06:57.100Z,73.77
2018-12-17T02:07:28.244Z,74.81
2018-12-17T02:07:59.349Z,74.41
2018-12-17T02:08:30.446Z,73.50
2018-12-17T02:09:01.556Z,73.20
2018-12-17T02:09:32.659Z,73.56
2018-12-17T02:10:03.764Z,74.39
2018-12-17T02:10:34.859Z,74.16
2018-12-17T02:11:05.974Z,74.25
2018-12-17T02:11:37.082Z,73.87
2018-12-17T02:12:08.194Z,75.13
2018-12-17T02:12:39.328Z,74.66
2018-12-17T02:13:10.436Z,73.96
2018-12-17T02:13:41.557Z,74.94
2018-12-17T02:14:12.663Z,74.16
2018-12-17T02:14:43.764Z,73.31
2018-12-17T02:15:16.286Z,73.93
2018-12-17T02:15:47.597Z,74.18
2018-12-17T02:16:18.711Z,74.78
2018-12-17T02:16:50.140Z,74.26
2018-12-17T02:17:22.345Z,73.91
2018-12-17T02:17:53.519Z,73.92
2018-12-17T02:18:24.668Z,76.34
2018-12-17T02:18:55.771Z,75.88
2018-12-17T02:19:26.883Z,73.44
2018-12-17T02:19:58.029Z,72.81
2018-12-17T02:20:29.133Z,73.49
2018-12-17T02:21:00.249Z,74.08
2018-12-17T02:21:31.361Z,75.00
2018-12-17T02:22:02.466Z,74.92
2018-12-17T02:22:33.566Z,74.51
2018-12-17T02:23:04.674Z,75.06
2018-12-17T02:23:35.776Z,73.79
2018-12-17T02:24:06.881Z,73.67
2018-12-17T02:24:38.024Z,73.52
2018-12-17T02:25:09.129Z,74.22
2018-12-17T02:25:40.233Z,74.31
2018-12-17T02:26:11.328Z,73.66
2018-12-17T02:26:42.429Z,73.91
2018-12-17T02:27:13.577Z,74.15
2018-12-17T02:27:44.676Z,74.82
2018-12-17T02:28:15.796Z,74.14
2018-12-17T02:28:46.896Z,74.32
2018-12-17T02:29:18.004Z,75.07
2018-12-17T02:29:49.107Z,76.05
2018-12-17T02:30:20.261Z,75.64
2018-12-17T02:30:51.369Z,76.96
2018-12-17T02:31:22.495Z,76.01
2018-12-17T02:31:53.609Z,75.29
2018-12-17T02:32:24.712Z,73.63
2018-12-17T02:32:55.816Z,73.45
2018-12-17T02:33:26.960Z,72.90
2018-12-17T02:33:58.065Z,73.35
2018-12-17T02:34:29.170Z,73.71
2018-12-17T02:35:00.279Z,74.02
2018-12-17T02:35:31.392Z,74.05
2018-12-17T02:36:02.496Z,73.60
2018-12-17T02:36:33.645Z,74.79
2018-12-17T02:37:04.822Z,74.11
2018-12-17T02:37:37.113Z,73.69
2018-12-17T02:38:08.225Z,74.21
2018-12-17T02:38:39.337Z,74.31
2018-12-17T02:39:10.447Z,75.20
2018-12-17T02:39:41.674Z,75.04
2018-12-17T02:40:12.781Z,75.31
2018-12-17T02:40:43.880Z,74.66
2018-12-17T02:41:14.986Z,75.19
2018-12-17T02:41:46.129Z,75.52
2018-12-17T02:42:17.267Z,75.41
2018-12-17T02:42:48.409Z,75.36
2018-12-17T02:43:19.535Z,74.97
2018-12-17T02:43:50.652Z,74.73
2018-12-17T02:44:21.756Z,74.75
2018-12-17T02:44:52.857Z,75.67
2018-12-17T02:45:23.976Z,74.31
2018-12-17T02:45:55.083Z,74.46
2018-12-17T02:46:26.225Z,74.97
2018-12-17T02:46:57.325Z,74.81
2018-12-17T02:47:28.446Z,75.17
2018-12-17T02:47:59.589Z,75.29
2018-12-17T02:48:30.701Z,75.15
2018-12-17T02:49:01.807Z,75.62
2018-12-17T02:49:32.911Z,76.10
2018-12-17T02:50:04.010Z,76.27
2018-12-17T02:50:35.112Z,76.50
2018-12-17T02:51:06.259Z,76.79
2018-12-17T02:51:37.374Z,76.53
2018-12-17T02:52:08.485Z,76.79
2018-12-17T02:52:40.104Z,75.85
2018-12-17T02:53:11.212Z,74.31
2018-12-17T02:53:42.320Z,73.88
2018-12-17T02:54:13.432Z,75.43
2018-12-17T02:54:44.546Z,75.19
2018-12-17T02:55:15.655Z,75.37
2018-12-17T02:55:46.764Z,76.70
2018-12-17T02:56:17.931Z,76.76
2018-12-17T02:56:49.161Z,75.97
2018-12-17T02:57:20.264Z,75.95
2018-12-17T02:57:51.428Z,74.00
2018-12-17T02:58:22.537Z,73.38
2018-12-17T02:58:53.640Z,73.50
2018-12-17T02:59:24.744Z,73.09
2018-12-17T02:59:55.849Z,74.20
2018-12-17T03:00:26.951Z,75.53
2018-12-17T03:00:58.072Z,74.25
2018-12-17T03:01:29.163Z,74.31
2018-12-17T03:02:00.292Z,73.91
2018-12-17T03:02:31.421Z,73.49
2018-12-17T03:03:02.591Z,73.54
2018-12-17T03:03:33.694Z,73.66
2018-12-17T03:04:04.809Z,74.29
2018-12-17T03:04:35.914Z,73.95
2018-12-17T03:05:07.018Z,73.70
2018-12-17T03:05:38.125Z,73.12
2018-12-17T03:06:09.248Z,73.47
2018-12-17T03:06:40.365Z,73.94
2018-12-17T03:07:11.514Z,74.06
2018-12-17T03:07:42.619Z,74.96
2018-12-17T03:08:13.742Z,74.98
2018-12-17T03:08:44.850Z,74.45
2018-12-17T03:09:15.953Z,74.59
2018-12-17T03:09:47.053Z,74.30
2018-12-17T03:10:18.173Z,74.91
2018-12-17T03:10:49.272Z,74.57
2018-12-17T03:11:20.382Z,75.25
2018-12-17T03:11:51.532Z,75.92
2018-12-17T03:12:22.635Z,75.34
2018-12-17T03:12:53.747Z,75.20
2018-12-17T03:13:24.899Z,76.25
2018-12-17T03:13:56.100Z,74.08
2018-12-17T03:14:27.213Z,73.61
2018-12-17T03:14:58.311Z,74.50
2018-12-17T03:15:29.416Z,74.34
2018-12-17T03:16:00.529Z,74.15
2018-12-17T03:16:31.623Z,73.15
2018-12-17T03:17:02.761Z,73.16
2018-12-17T03:17:33.863Z,72.35
2018-12-17T03:18:04.972Z,73.33
2018-12-17T03:18:36.719Z,73.67
2018-12-17T03:19:07.812Z,74.96
2018-12-17T03:19:38.918Z,74.07
2018-12-17T03:20:10.030Z,73.42
2018-12-17T03:20:41.136Z,73.20
2018-12-17T03:21:12.282Z,72.98
2018-12-17T03:21:43.386Z,73.08
2018-12-17T03:22:14.544Z,74.44
2018-12-17T03:22:45.649Z,73.72
2018-12-17T03:23:16.756Z,74.57
2018-12-17T03:23:47.861Z,74.15
2018-12-17T03:24:18.962Z,75.18
2018-12-17T03:24:50.121Z,73.94
2018-12-17T03:25:21.254Z,73.63
2018-12-17T03:25:52.377Z,73.18
2018-12-17T03:26:23.522Z,75.16
2018-12-17T03:26:54.658Z,74.87
2018-12-17T03:27:25.783Z,74.13
2018-12-17T03:27:56.887Z,72.89
2018-12-17T03:28:27.994Z,72.73
2018-12-17T03:28:59.157Z,73.68
2018-12-17T03:29:30.261Z,73.23
2018-12-17T03:30:01.366Z,73.38
2018-12-17T03:30:32.474Z,73.29
2018-12-17T03:31:03.588Z,72.90
2018-12-17T03:31:34.691Z,73.49
2018-12-17T03:32:05.786Z,73.51
2018-12-17T03:32:36.901Z,73.47
2018-12-17T03:33:07.995Z,73.83
2018-12-17T03:33:39.113Z,73.70
2018-12-17T03:34:10.243Z,73.92
2018-12-17T03:34:41.358Z,74.08
2018-12-17T03:35:12.463Z,73.86
2018-12-17T03:35:43.562Z,74.17
2018-12-17T03:36:14.680Z,74.09
2018-12-17T03:36:45.784Z,73.68
2018-12-17T03:37:16.889Z,75.03
2018-12-17T03:37:48.025Z,75.22
2018-12-17T03:38:19.160Z,74.50
2018-12-17T03:38:50.298Z,73.96
2018-12-17T03:39:21.408Z,73.91
2018-12-17T03:39:52.516Z,74.34
2018-12-17T03:40:23.665Z,74.35
2018-12-17T03:40:54.814Z,74.43
2018-12-17T03:41:25.988Z,73.97
2018-12-17T03:41:57.152Z,74.09
2018-12-17T03:42:28.260Z,73.46
2018-12-17T03:42:59.365Z,73.92
2018-12-17T03:43:30.478Z,74.09
2018-12-17T03:44:01.579Z,74.03
2018-12-17T03:44:32.689Z,74.18
2018-12-17T03:45:03.791Z,74.58
2018-12-17T03:45:34.897Z,73.82
2018-12-17T03:46:06.008Z,73.32
2018-12-17T03:46:37.103Z,74.37
2018-12-17T03:47:08.235Z,73.14
2018-12-17T03:47:39.372Z,73.59
2018-12-17T03:48:10.472Z,73.64
2018-12-17T03:48:41.582Z,73.89
2018-12-17T03:49:12.681Z,74.30
2018-12-17T03:49:43.793Z,74.54
2018-12-17T03:50:14.890Z,75.25
2018-12-17T03:50:46.047Z,73.43
2018-12-17T03:51:17.258Z,74.64
2018-12-17T03:51:48.357Z,73.58
2018-12-17T03:52:19.502Z,73.96
2018-12-17T03:52:50.600Z,74.15
2018-12-17T03:53:21.704Z,74.29
2018-12-17T03:53:52.811Z,73.93
2018-12-17T03:54:23.916Z,73.50
2018-12-17T03:54:55.027Z,73.36
2018-12-17T03:55:26.130Z,72.92
2018-12-17T03:55:57.232Z,72.91
2018-12-17T03:56:28.401Z,73.06
2018-12-17T03:56:59.607Z,73.51
2018-12-17T03:57:30.711Z,73.27
2018-12-17T03:58:01.815Z,73.62
2018-12-17T03:58:32.928Z,74.24
2018-12-17T03:59:04.032Z,73.93
2018-12-17T03:59:35.140Z,73.21
2018-12-17T04:00:06.250Z,72.76
2018-12-17T04:00:37.359Z,72.81
2018-12-17T04:01:08.465Z,73.33
2018-12-17T04:01:39.604Z,74.30
2018-12-17T04:02:10.717Z,72.44
2018-12-17T04:02:41.828Z,72.33
2018-12-17T04:03:12.937Z,72.96
2018-12-17T04:03:44.037Z,73.39
2018-12-17T04:04:15.136Z,72.31
2018-12-17T04:04:46.236Z,74.58
2018-12-17T04:05:17.353Z,73.66
2018-12-17T04:05:48.552Z,73.47
2018-12-17T04:06:19.658Z,73.11
2018-12-17T04:06:50.765Z,72.62
2018-12-17T04:07:21.876Z,71.91
2018-12-17T04:07:52.977Z,71.76
2018-12-17T04:08:24.074Z,71.32
2018-12-17T04:08:55.180Z,72.10
2018-12-17T04:09:26.281Z,73.01
2018-12-17T04:09:57.383Z,72.77
2018-12-17T04:10:28.487Z,71.96
2018-12-17T04:10:59.628Z,71.76
2018-12-17T04:11:30.743Z,71.97
2018-12-17T04:12:01.859Z,72.41
2018-12-17T04:12:32.966Z,72.36
2018-12-17T04:13:04.064Z,72.00
2018-12-17T04:13:35.167Z,71.68
2018-12-17T04:14:06.312Z,71.76
2018-12-17T04:14:37.457Z,71.95
2018-12-17T04:15:08.591Z,71.83
2018-12-17T04:15:39.692Z,71.87
2018-12-17T04:16:10.805Z,72.06
2018-12-17T04:16:41.907Z,73.48
2018-12-17T04:17:13.013Z,73.61
2018-12-17T04:17:44.126Z,72.40
2018-12-17T04:18:15.233Z,72.09
2018-12-17T04:18:46.345Z,71.83
2018-12-17T04:19:17.446Z,72.30
2018-12-17T04:19:48.615Z,72.28
2018-12-17T04:20:19.709Z,71.58
2018-12-17T04:20:50.845Z,72.44
2018-12-17T04:21:21.954Z,72.32
2018-12-17T04:21:53.110Z,71.96
2018-12-17T04:22:24.204Z,71.63
2018-12-17T04:22:55.308Z,71.98
2018-12-17T04:23:26.419Z,72.19
2018-12-17T04:23:57.520Z,72.31
2018-12-17T04:24:28.621Z,72.21
2018-12-17T04:24:59.735Z,72.58
2018-12-17T04:25:30.852Z,73.37
2018-12-17T04:26:01.953Z,73.60
2018-12-17T04:26:33.060Z,72.81
2018-12-17T04:27:04.216Z,72.08
2018-12-17T04:27:35.331Z,71.74
2018-12-17T04:28:06.450Z,72.66
2018-12-17T04:28:37.573Z,72.23
2018-12-17T04:29:08.694Z,71.64
2018-12-17T04:29:39.802Z,72.48
2018-12-17T04:30:10.904Z,72.95
2018-12-17T04:30:42.016Z,72.33
2018-12-17T04:31:13.136Z,72.94
2018-12-17T04:31:44.274Z,72.46
2018-12-17T04:32:15.379Z,71.14
2018-12-17T04:32:46.524Z,71.10
2018-12-17T04:33:17.642Z,71.28
2018-12-17T04:33:48.747Z,71.36
2018-12-17T04:34:19.859Z,71.92
2018-12-17T04:34:50.956Z,71.74
2018-12-17T04:35:22.065Z,71.62
2018-12-17T04:35:53.213Z,71.82
2018-12-17T04:36:24.435Z,72.30
2018-12-17T04:36:55.536Z,71.73
2018-12-17T04:37:26.640Z,71.11
2018-12-17T04:37:57.835Z,71.49
2018-12-17T04:38:28.933Z,71.68
2018-12-17T04:39:00.038Z,72.51
2018-12-17T04:39:31.145Z,72.03
2018-12-17T04:40:02.253Z,71.61
2018-12-17T04:40:33.664Z,70.98
2018-12-17T04:41:04.774Z,71.39
2018-12-17T04:41:35.890Z,72.04
2018-12-17T04:42:07.032Z,72.65
2018-12-17T04:42:38.300Z,72.04
2018-12-17T04:43:09.404Z,71.99
2018-12-17T04:43:40.506Z,71.29
2018-12-17T04:44:11.615Z,71.87
2018-12-17T04:44:43.038Z,71.63
2018-12-17T04:45:14.177Z,71.35
2018-12-17T04:45:45.285Z,71.14
2018-12-17T04:46:16.388Z,72.99
2018-12-17T04:46:47.523Z,72.05
2018-12-17T04:47:18.639Z,71.72
2018-12-17T04:47:49.801Z,71.14
2018-12-17T04:48:20.903Z,72.19
2018-12-17T04:48:52.005Z,71.56
2018-12-17T04:49:23.106Z,71.69
2018-12-17T04:49:54.216Z,72.30
2018-12-17T04:50:25.329Z,72.13
2018-12-17T04:50:56.423Z,73.15
2018-12-17T04:51:27.529Z,70.82
2018-12-17T04:51:58.638Z,71.52
2018-12-17T04:52:29.745Z,72.34
2018-12-17T04:53:00.889Z,71.06
2018-12-17T04:53:31.993Z,71.44
2018-12-17T04:54:03.101Z,71.48
2018-12-17T04:54:34.233Z,72.26
2018-12-17T04:55:05.346Z,70.97
2018-12-17T04:55:36.462Z,71.02
2018-12-17T04:56:07.570Z,72.33
2018-12-17T04:56:38.702Z,71.36
2018-12-17T04:57:09.858Z,71.47
2018-12-17T04:57:40.973Z,71.58
2018-12-17T04:58:12.089Z,71.27
2018-12-17T04:58:43.240Z,71.82
2018-12-17T04:59:14.971Z,72.50
2018-12-17T04:59:46.379Z,72.45
2018-12-17T05:00:17.484Z,72.79
2018-12-17T05:00:48.588Z,72.78
2018-12-17T05:01:19.734Z,72.35
2018-12-17T05:01:50.976Z,71.94
2018-12-17T05:02:22.089Z,73.48
2018-12-17T05:02:53.217Z,72.07
2018-12-17T05:03:24.331Z,71.82
2018-12-17T05:03:55.478Z,71.65
2018-12-17T05:04:26.593Z,71.91
2018-12-17T05:04:57.712Z,72.49
2018-12-17T05:05:28.818Z,72.09
2018-12-17T05:05:59.941Z,72.13
2018-12-17T05:06:31.053Z,71.80
2018-12-17T05:07:02.174Z,72.14
2018-12-17T05:07:33.291Z,72.65
2018-12-17T05:08:04.399Z,72.45
2018-12-17T05:08:35.536Z,72.32
2018-12-17T05:09:06.647Z,72.32
2018-12-17T05:09:37.761Z,73.38
2018-12-17T05:10:08.869Z,72.76
2018-12-17T05:10:40.182Z,72.66
2018-12-17T05:11:11.391Z,72.54
2018-12-17T05:11:42.505Z,73.03
2018-12-17T05:12:13.654Z,73.23
2018-12-17T05:12:44.781Z,73.06
2018-12-17T05:13:15.888Z,72.83
2018-12-17T05:13:46.999Z,72.60
2018-12-17T05:14:18.107Z,73.98
2018-12-17T05:14:49.221Z,73.94
2018-12-17T05:15:20.397Z,73.25
2018-12-17T05:15:51.502Z,72.91
2018-12-17T05:16:22.613Z,72.40
2018-12-17T05:16:53.740Z,72.69
2018-12-17T05:17:24.865Z,73.40
2018-12-17T05:17:55.998Z,73.15
2018-12-17T05:18:27.116Z,72.20
2018-12-17T05:18:58.256Z,72.21
2018-12-17T05:19:29.364Z,72.76
2018-12-17T05:20:00.520Z,73.80
2018-12-17T05:20:31.687Z,73.63
2018-12-17T05:21:02.827Z,72.70
2018-12-17T05:21:33.963Z,72.67
2018-12-17T05:22:05.095Z,73.12
2018-12-17T05:22:36.224Z,72.27
2018-12-17T05:23:07.376Z,72.33
2018-12-17T05:23:38.590Z,72.77
2018-12-17T05:24:09.715Z,72.71
2018-12-17T05:24:40.877Z,72.43
2018-12-17T05:25:12.022Z,72.98
2018-12-17T05:25:43.202Z,73.02
2018-12-17T05:26:14.346Z,73.12
2018-12-17T05:26:45.483Z,73.47
2018-12-17T05:27:16.637Z,73.28
2018-12-17T05:27:48.785Z,73.38
2018-12-17T05:28:19.903Z,73.18
2018-12-17T05:28:51.676Z,73.75
2018-12-17T05:29:22.854Z,73.53
2018-12-17T05:29:53.968Z,73.40
2018-12-17T05:30:25.117Z,73.79
2018-12-17T05:30:56.277Z,73.09
2018-12-17T05:31:27.400Z,72.99
2018-12-17T05:31:58.531Z,74.63
2018-12-17T05:32:31.359Z,73.43
2018-12-17T05:33:02.707Z,73.19
2018-12-17T05:33:33.846Z,72.96
2018-12-17T05:34:04.971Z,72.53
2018-12-17T05:34:36.139Z,73.01
2018-12-17T05:35:07.284Z,73.44
2018-12-17T05:35:38.413Z,73.41
2018-12-17T05:36:09.543Z,73.95
2018-12-17T05:36:40.662Z,74.96
2018-12-17T05:37:11.789Z,74.97
2018-12-17T05:37:44.735Z,74.06
2018-12-17T05:38:15.965Z,73.64
2018-12-17T05:38:47.115Z,73.40
2018-12-17T05:39:18.235Z,73.21
2018-12-17T05:39:49.402Z,73.28
2018-12-17T05:40:20.535Z,73.89
2018-12-17T05:40:51.661Z,73.74
2018-12-17T05:41:22.844Z,73.09
2018-12-17T05:41:54.280Z,72.69
2018-12-17T05:42:26.049Z,73.08
2018-12-17T05:42:57.181Z,73.05
2018-12-17T05:43:28.326Z,73.84
2018-12-17T05:43:59.466Z,74.42
2018-12-17T05:44:30.595Z,73.24
2018-12-17T05:45:01.772Z,72.78
2018-12-17T05:45:32.948Z,73.56
2018-12-17T05:46:04.061Z,73.32
2018-12-17T05:46:35.189Z,72.69
2018-12-17T05:47:06.311Z,73.00
2018-12-17T05:47:37.437Z,72.93
2018-12-17T05:48:08.551Z,73.06
2018-12-17T05:48:39.678Z,73.03
2018-12-17T05:49:10.813Z,73.52
2018-12-17T05:49:41.935Z,72.75
2018-12-17T05:50:13.107Z,73.52
2018-12-17T05:50:44.278Z,73.53
2018-12-17T05:51:15.399Z,73.77
2018-12-17T05:51:46.524Z,73.45
2018-12-17T05:52:17.725Z,73.25
2018-12-17T05:52:48.837Z,73.52
2018-12-17T05:53:19.948Z,73.79
2018-12-17T05:53:51.064Z,73.18
2018-12-17T05:54:22.177Z,73.43
2018-12-17T05:54:53.284Z,74.02
2018-12-17T05:55:24.393Z,74.51
2018-12-17T05:55:55.509Z,74.21
2018-12-17T05:56:26.619Z,73.36
2018-12-17T05:56:57.761Z,73.45
2018-12-17T05:57:28.863Z,72.39
2018-12-17T05:57:59.973Z,72.42
2018-12-17T05:58:31.090Z,72.62
2018-12-17T05:59:02.382Z,73.14
2018-12-17T05:59:33.488Z,73.09
2018-12-17T06:00:04.595Z,73.55
2018-12-17T06:00:35.710Z,73.99
2018-12-17T06:01:06.822Z,74.30
2018-12-17T06:01:37.949Z,73.64
2018-12-17T06:02:09.093Z,73.75
2018-12-17T06:02:40.211Z,74.15
2018-12-17T06:03:11.317Z,74.73
2018-12-17T06:03:42.434Z,73.66
2018-12-17T06:04:13.536Z,73.66
2018-12-17T06:04:44.644Z,73.21
2018-12-17T06:05:15.870Z,73.21
2018-12-17T06:05:47.037Z,72.95
2018-12-17T06:06:18.179Z,73.15
2018-12-17T06:06:49.291Z,75.24
2018-12-17T06:07:20.408Z,74.86
2018-12-17T06:07:51.516Z,74.70
2018-12-17T06:08:22.948Z,73.09
2018-12-17T06:08:54.132Z,72.98
2018-12-17T06:09:25.251Z,72.68
2018-12-17T06:09:56.358Z,73.37
2018-12-17T06:10:27.528Z,72.66
2018-12-17T06:10:58.646Z,72.04
2018-12-17T06:11:29.780Z,72.64
2018-12-17T06:12:00.895Z,72.47
2018-12-17T06:12:32.005Z,72.76
2018-12-17T06:13:03.130Z,73.17
2018-12-17T06:13:34.253Z,73.30
2018-12-17T06:14:05.365Z,73.80
2018-12-17T06:14:36.518Z,73.60
2018-12-17T06:15:07.635Z,73.27
2018-12-17T06:15:38.739Z,72.75
2018-12-17T06:16:09.856Z,72.60
2018-12-17T06:16:40.961Z,73.16
2018-12-17T06:17:12.112Z,73.17
2018-12-17T06:17:43.226Z,74.25
2018-12-17T06:18:14.339Z,75.08
2018-12-17T06:18:45.483Z,74.52
2018-12-17T06:19:16.595Z,73.00
2018-12-17T06:19:47.705Z,72.01
2018-12-17T06:20:19.429Z,71.90
2018-12-17T06:20:50.575Z,72.11
2018-12-17T06:21:21.679Z,72.40
2018-12-17T06:21:52.806Z,72.19
2018-12-17T06:22:23.922Z,72.00
2018-12-17T06:22:55.031Z,72.60
2018-12-17T06:23:26.163Z,72.87
2018-12-17T06:23:57.370Z,72.73
2018-12-17T06:24:29.065Z,72.51
2018-12-17T06:25:00.180Z,72.63
2018-12-17T06:25:31.291Z,72.99
2018-12-17T06:26:02.416Z,72.91
2018-12-17T06:26:33.668Z,72.60
2018-12-17T06:27:05.026Z,72.68
2018-12-17T06:27:36.865Z,73.23
2018-12-17T06:28:09.341Z,73.43
2018-12-17T06:28:40.473Z,73.81
2018-12-17T06:29:11.620Z,73.92
2018-12-17T06:29:42.774Z,73.85
2018-12-17T06:30:13.881Z,73.14
2018-12-17T06:30:44.995Z,72.98
2018-12-17T06:31:16.096Z,73.23
2018-12-17T06:31:47.199Z,74.12
2018-12-17T06:32:18.316Z,73.33
2018-12-17T06:32:49.427Z,73.50
2018-12-17T06:33:20.561Z,73.52
2018-12-17T06:33:51.662Z,73.86
2018-12-17T06:34:22.822Z,73.79
2018-12-17T06:34:53.936Z,73.60
2018-12-17T06:35:25.044Z,74.29
2018-12-17T06:35:56.148Z,74.72
2018-12-17T06:36:27.265Z,74.19
2018-12-17T06:36:58.385Z,72.74
2018-12-17T06:37:29.495Z,73.08
2018-12-17T06:38:00.604Z,72.49
2018-12-17T06:38:31.719Z,72.93
2018-12-17T06:39:02.905Z,72.29
2018-12-17T06:39:34.031Z,72.24
2018-12-17T06:40:10.198Z,72.65
2018-12-17T06:40:38.290Z,73.35
2018-12-17T06:41:09.410Z,73.28